createdAt,value
2023-03-24T00:01:43.669Z,96216.66
2023-03-24T00:07:04.455Z,96217.34
2023-03-24T00:12:25.310Z,96207.50
2023-03-24T00:17:50.372Z,96209.47
2023-03-24T00:23:12.347Z,96203.88
2023-03-24T00:28:37.013Z,96199.69
2023-03-24T00:33:57.945Z,96192.03
2023-03-24T00:39:19.987Z,96190.59
2023-03-24T00:44:40.616Z,96188.81
2023-03-24T00:50:02.168Z,96176.84
2023-03-24T00:55:23.637Z,96167.38
2023-03-24T01:00:46.558Z,96164.75
2023-03-24T01:06:08.985Z,96162.28
2023-03-24T01:11:37.746Z,96157.41
2023-03-24T01:16:59.674Z,96155.66
2023-03-24T01:22:20.906Z,96159.06
2023-03-24T01:27:41.767Z,96154.16
2023-03-24T01:33:02.606Z,96148.66
2023-03-24T01:38:23.311Z,96143.09
2023-03-24T01:43:44.412Z,96137.91
2023-03-24T01:49:07.660Z,96124.47
2023-03-24T01:54:36.010Z,96126.44
2023-03-24T02:00:06.891Z,96121.19
2023-03-24T02:06:02.464Z,96120.41
2023-03-24T02:11:27.025Z,96114.34
2023-03-24T02:17:11.078Z,96106.66
2023-03-24T02:22:47.094Z,96104.50
2023-03-24T02:28:30.246Z,96099.59
2023-03-24T02:34:14.048Z,96088.34
2023-03-24T02:39:43.694Z,96088.81
2023-03-24T02:45:23.204Z,96086.38
2023-03-24T02:51:16.583Z,96088.34
2023-03-24T02:56:50.068Z,96087.56
2023-03-24T03:02:35.993Z,96081.94
2023-03-24T03:08:01.524Z,96086.91
2023-03-24T03:13:32.271Z,96088.56
2023-03-24T03:19:01.549Z,96081.22
2023-03-24T03:24:30.678Z,96079.59
2023-03-24T03:29:56.001Z,96080.75
2023-03-24T03:35:45.697Z,96074.03
2023-03-24T03:41:06.814Z,96062.72
2023-03-24T03:46:30.467Z,96067.41
2023-03-24T03:51:54.195Z,96061.72
2023-03-24T03:57:16.028Z,96075.66
2023-03-24T04:02:58.638Z,96073.50
2023-03-24T04:08:26.387Z,96073.81
2023-03-24T04:14:17.496Z,96069.31
2023-03-24T04:20:12.309Z,96072.22
2023-03-24T04:25:58.743Z,96059.00
2023-03-24T04:31:30.261Z,96064.94
2023-03-24T04:37:04.230Z,96058.56
2023-03-24T04:42:52.662Z,96065.56
2023-03-24T04:48:18.860Z,96062.00
2023-03-24T04:54:00.100Z,96058.72
2023-03-24T04:59:21.391Z,96060.88
2023-03-24T05:04:42.239Z,96057.78
2023-03-24T05:10:21.803Z,96038.00
2023-03-24T05:15:47.880Z,96027.53
2023-03-24T05:21:17.572Z,96017.78
2023-03-24T05:26:39.682Z,96008.13
2023-03-24T05:32:05.932Z,96015.31
2023-03-24T05:37:27.561Z,96005.66
2023-03-24T05:42:50.603Z,96000.09
2023-03-24T05:48:12.165Z,95999.31
2023-03-24T05:53:56.215Z,95992.28
2023-03-24T05:59:38.092Z,95995.06
2023-03-24T06:05:31.736Z,95981.44
2023-03-24T06:10:53.546Z,95979.81
2023-03-24T06:16:18.994Z,95975.88
2023-03-24T06:21:50.772Z,95974.38
2023-03-24T06:27:18.636Z,95977.13
2023-03-24T06:32:39.541Z,95976.59
2023-03-24T06:38:00.572Z,95968.41
2023-03-24T06:43:21.305Z,95969.06
2023-03-24T06:48:43.338Z,95970.16
2023-03-24T06:54:04.241Z,95971.91
2023-03-24T06:59:25.018Z,95981.66
2023-03-24T07:04:46.161Z,95982.50
2023-03-24T07:10:19.733Z,95983.41
2023-03-24T07:15:40.781Z,95990.38
2023-03-24T07:21:04.258Z,95987.72
2023-03-24T07:26:25.968Z,95987.66
2023-03-24T07:31:58.967Z,95981.91
2023-03-24T07:37:20.591Z,95977.56
2023-03-24T07:42:43.535Z,95988.69
2023-03-24T07:48:30.933Z,95976.25
2023-03-24T07:53:52.306Z,95965.72
2023-03-24T07:59:28.098Z,95971.25
2023-03-24T08:05:22.241Z,95976.47
2023-03-24T08:10:53.488Z,95975.25
2023-03-24T08:16:14.298Z,95975.25
2023-03-24T08:21:35.573Z,95975.25
2023-03-24T08:26:58.759Z,95975.34
2023-03-24T08:32:19.744Z,95971.72
2023-03-24T08:37:43.308Z,95971.47
2023-03-24T08:43:08.663Z,95959.16
2023-03-24T08:48:33.390Z,95955.00
2023-03-24T08:53:55.381Z,95948.09
2023-03-24T08:59:16.592Z,95949.06
2023-03-24T09:04:37.464Z,95936.91
2023-03-24T09:09:58.583Z,95938.84
2023-03-24T09:15:19.176Z,95930.69
2023-03-24T09:20:39.982Z,95919.72
2023-03-24T09:26:01.939Z,95906.81
2023-03-24T09:31:23.117Z,95887.28
2023-03-24T09:36:43.638Z,95895.25
2023-03-24T09:42:18.069Z,95891.78
2023-03-24T09:47:43.056Z,95893.16
2023-03-24T09:53:22.394Z,95886.72
2023-03-24T09:58:46.164Z,95883.13
2023-03-24T10:04:20.319Z,95877.28
2023-03-24T10:09:41.248Z,95871.63
2023-03-24T10:15:41.276Z,95876.34
2023-03-24T10:21:19.477Z,95885.28
2023-03-24T10:26:43.619Z,95896.03
2023-03-24T10:32:20.895Z,95903.13
2023-03-24T10:37:41.714Z,95928.97
2023-03-24T10:43:07.418Z,95909.31
2023-03-24T10:48:39.980Z,95910.22
2023-03-24T10:54:33.042Z,95915.19
2023-03-24T11:00:09.922Z,95926.31
2023-03-24T11:05:35.565Z,95919.78
2023-03-24T11:10:56.092Z,95917.00
2023-03-24T11:16:17.522Z,95913.03
2023-03-24T11:21:43.153Z,95913.31
2023-03-24T11:27:04.376Z,95922.28
2023-03-24T11:32:28.136Z,95913.63
2023-03-24T11:37:49.290Z,95913.81
2023-03-24T11:43:20.920Z,95905.88
2023-03-24T11:48:52.013Z,95907.59
2023-03-24T11:54:17.366Z,95907.75
2023-03-24T11:59:44.318Z,95908.31
2023-03-24T12:05:27.196Z,95923.19
2023-03-24T12:11:20.582Z,95906.53
2023-03-24T12:17:03.795Z,95907.53
2023-03-24T12:22:42.706Z,95893.03
2023-03-24T12:28:09.656Z,95887.19
2023-03-24T12:33:54.092Z,95889.19
2023-03-24T12:39:21.195Z,95886.13
2023-03-24T12:45:18.663Z,95883.31
2023-03-24T12:50:50.603Z,95874.03
2023-03-24T12:56:26.783Z,95889.94
2023-03-24T13:02:43.423Z,95881.41
2023-03-24T13:08:11.394Z,95911.38
2023-03-24T13:13:37.689Z,95930.66
2023-03-24T13:19:00.033Z,95928.06
2023-03-24T13:24:21.162Z,95912.59
2023-03-24T13:29:48.921Z,95887.75
2023-03-24T13:35:24.165Z,95895.88
2023-03-24T13:40:51.607Z,95891.47
2023-03-24T13:46:13.833Z,95894.34
2023-03-24T13:51:38.194Z,95880.59
2023-03-24T13:57:20.716Z,95870.16
2023-03-24T14:02:50.052Z,95868.44
2023-03-24T14:08:12.837Z,95875.56
2023-03-24T14:13:36.137Z,95879.41
2023-03-24T14:19:39.160Z,95855.94
2023-03-24T14:25:17.778Z,95857.44
2023-03-24T14:30:58.543Z,95850.00
2023-03-24T14:36:33.033Z,95845.94
2023-03-24T14:41:55.098Z,95850.00
2023-03-24T14:47:21.069Z,95844.31
2023-03-24T14:52:47.990Z,95839.19
2023-03-24T14:58:35.968Z,95842.59
2023-03-24T15:04:07.201Z,95829.03
2023-03-24T15:09:28.189Z,95838.28
2023-03-24T15:14:49.491Z,95852.59
2023-03-24T15:20:35.178Z,95848.53
2023-03-24T15:25:57.454Z,95839.41
2023-03-24T15:31:18.644Z,95808.59
2023-03-24T15:36:40.964Z,95820.34
2023-03-24T15:42:09.135Z,95804.34
2023-03-24T15:47:32.682Z,95798.94
2023-03-24T15:53:02.773Z,95802.16
2023-03-24T15:58:32.153Z,95799.72
2023-03-24T16:03:54.888Z,95801.47
2023-03-24T16:09:21.815Z,95796.81
2023-03-24T16:14:42.754Z,95786.31
2023-03-24T16:20:08.918Z,95782.09
2023-03-24T16:25:29.506Z,95782.94
2023-03-24T16:30:58.443Z,95782.94
2023-03-24T16:36:19.295Z,95797.06
2023-03-24T16:41:40.361Z,95797.44
2023-03-24T16:47:01.044Z,95803.69
2023-03-24T16:52:21.730Z,95808.50
2023-03-24T16:57:42.570Z,95799.13
2023-03-24T17:03:04.416Z,95828.16
2023-03-24T17:08:25.793Z,95839.34
2023-03-24T17:13:46.752Z,95856.25
2023-03-24T17:19:07.571Z,95856.75
2023-03-24T17:24:30.325Z,95887.69
2023-03-24T17:29:51.551Z,95889.94
2023-03-24T17:35:15.747Z,95910.69
2023-03-24T17:40:36.717Z,95909.75
2023-03-24T17:46:01.677Z,95928.44
2023-03-24T17:51:22.624Z,95926.94
2023-03-24T17:56:43.579Z,95909.69
2023-03-24T18:02:05.542Z,95919.53
2023-03-24T18:07:26.296Z,95915.22
2023-03-24T18:12:46.916Z,95918.69
2023-03-24T18:18:07.990Z,95919.59
2023-03-24T18:23:29.802Z,95920.56
2023-03-24T18:28:50.812Z,95936.81
2023-03-24T18:34:11.447Z,95950.25
2023-03-24T18:39:32.152Z,95932.69
2023-03-24T18:44:52.736Z,95929.22
2023-03-24T18:50:14.593Z,95939.56
2023-03-24T18:55:35.816Z,95938.47
2023-03-24T19:00:57.762Z,95937.34
2023-03-24T19:06:19.002Z,95952.75
2023-03-24T19:11:42.747Z,95941.81
2023-03-24T19:17:04.357Z,95958.38
2023-03-24T19:22:26.911Z,95966.63
2023-03-24T19:27:47.825Z,95971.66
2023-03-24T19:33:11.407Z,95968.06
2023-03-24T19:38:32.311Z,95955.03
2023-03-24T19:43:53.436Z,95960.66
2023-03-24T19:49:15.908Z,95964.41
2023-03-24T19:54:36.789Z,95969.13
2023-03-24T19:59:57.926Z,95975.97
2023-03-24T20:05:18.705Z,95972.56
2023-03-24T20:10:40.231Z,95983.72
2023-03-24T20:16:01.481Z,95983.22
2023-03-24T20:21:23.509Z,95981.09
2023-03-24T20:26:45.251Z,95985.50
2023-03-24T20:32:10.598Z,95990.91
2023-03-24T20:37:35.622Z,95985.88
2023-03-24T20:42:57.004Z,96006.75
2023-03-24T20:48:17.947Z,96009.69
2023-03-24T20:53:40.780Z,96004.63
2023-03-24T20:59:02.716Z,95998.59
2023-03-24T21:04:23.421Z,95995.50
2023-03-24T21:09:44.120Z,96014.75
2023-03-24T21:15:05.349Z,96011.16
2023-03-24T21:20:28.454Z,96012.63
2023-03-24T21:25:49.884Z,96024.06
2023-03-24T21:31:16.855Z,96024.22
2023-03-24T21:36:38.574Z,96027.69
2023-03-24T21:42:02.910Z,96027.97
2023-03-24T21:47:25.412Z,96028.81
2023-03-24T21:52:47.816Z,96023.09
2023-03-24T21:58:08.796Z,96020.78
2023-03-24T22:03:30.552Z,96024.56
2023-03-24T22:08:53.270Z,96028.63
2023-03-24T22:14:15.938Z,96015.88
2023-03-24T22:19:38.109Z,96025.53
2023-03-24T22:24:59.358Z,96025.50
2023-03-24T22:30:20.087Z,96021.63
2023-03-24T22:35:41.262Z,96019.69
2023-03-24T22:41:05.039Z,96029.31
2023-03-24T22:46:25.848Z,96023.44
2023-03-24T22:51:46.602Z,96032.25
2023-03-24T22:57:07.239Z,96021.69
2023-03-24T23:02:27.972Z,96041.44
2023-03-24T23:07:48.918Z,96038.97
2023-03-24T23:13:10.771Z,96035.06
2023-03-24T23:18:31.736Z,96030.66
2023-03-24T23:23:52.390Z,96031.31
2023-03-24T23:29:13.978Z,96032.13
2023-03-24T23:34:36.303Z,96034.72
2023-03-24T23:40:01.932Z,96023.63
2023-03-24T23:45:22.710Z,96031.44
2023-03-24T23:50:46.349Z,96023.63
2023-03-24T23:56:09.413Z,96028.19
